Time;durP1;ratioP1;P1;durP2;ratioP2;P2;SDS_P1;SDS_P2;PMS_P1;PMS_P2;Temp;Humidity;BMP_temperature;BMP_pressure;BME280_temperature;BME280_humidity;BME280_pressure;Samples;Min_cycle;Max_cycle;Signal;HPM_P1;HPM_P2
2023/03/31 00:00:19;;;;;;;1.63;1.50;;;;;8.50;96542.00;;;;4999782;28;20219;-66
2023/03/31 00:03:08;;;;;;;1.60;1.50;;;;;8.50;96542.00;;;;4999776;28;20209;-66
2023/03/31 00:05:59;;;;;;;4.47;2.03;;;;;8.50;96549.00;;;;5002829;28;20225;-66
2023/03/31 00:08:50;;;;;;;2.20;2.00;;;;;8.30;96548.00;;;;5001649;28;20261;-66
2023/03/31 00:11:40;;;;;;;2.97;2.67;;;;;7.70;96553.00;;;;5001677;28;20230;-66
2023/03/31 00:14:29;;;;;;;1.90;1.80;;;;;7.60;96540.00;;;;5005605;28;20274;-66
2023/03/31 00:17:18;;;;;;;4.07;2.40;;;;;7.80;96543.00;;;;5004497;28;20274;-66
2023/03/31 00:20:11;;;;;;;5.03;2.00;;;;;7.80;96549.00;;;;5000228;28;20321;-66
2023/03/31 00:23:00;;;;;;;2.87;2.20;;;;;7.70;96551.00;;;;5005607;28;20211;-66
2023/03/31 00:25:49;;;;;;;2.17;2.03;;;;;7.80;96562.00;;;;5001886;28;20229;-67
2023/03/31 00:28:39;;;;;;;3.40;2.43;;;;;7.90;96565.00;;;;5000202;28;20206;-66
2023/03/31 00:31:29;;;;;;;4.20;2.43;;;;;8.00;96565.00;;;;5003333;28;20276;-66
2023/03/31 00:34:18;;;;;;;3.43;2.07;;;;;8.00;96559.00;;;;5003943;28;20263;-66
2023/03/31 00:37:08;;;;;;;2.80;2.40;;;;;8.20;96557.00;;;;4997025;28;20868;-66
2023/03/31 00:39:58;;;;;;;2.80;2.60;;;;;8.20;96563.00;;;;4999595;28;20242;-68
2023/03/31 00:42:47;;;;;;;8.20;2.00;;;;;7.90;96553.00;;;;5004387;28;20230;-67
2023/03/31 00:45:38;;;;;;;3.50;2.63;;;;;8.30;96561.00;;;;5011841;28;20262;-67
2023/03/31 00:48:28;;;;;;;2.50;2.30;;;;;8.10;96561.00;;;;5000025;28;20211;-67
2023/03/31 00:51:17;;;;;;;3.27;2.37;;;;;7.80;96560.00;;;;5004928;28;20658;-67
2023/03/31 00:54:07;;;;;;;3.07;2.50;;;;;7.90;96553.00;;;;5004231;28;20260;-67
2023/03/31 00:57:01;;;;;;;2.83;2.20;;;;;7.40;96547.00;;;;5005402;28;20232;-69
2023/03/31 00:59:52;;;;;;;2.57;1.90;;;;;7.50;96541.00;;;;5011201;28;20626;-65
2023/03/31 01:02:50;;;;;;;2.80;2.47;;;;;7.90;96549.00;;;;5007973;28;20206;-65
2023/03/31 01:05:43;;;;;;;3.43;2.77;;;;;7.90;96545.00;;;;5007251;28;20214;-65
2023/03/31 01:08:35;;;;;;;9.90;2.93;;;;;7.90;96534.00;;;;5008944;28;20213;-66
2023/03/31 01:11:26;;;;;;;7.00;3.20;;;;;7.90;96530.00;;;;5003519;28;20620;-66
2023/03/31 01:14:15;;;;;;;5.23;2.70;;;;;7.80;96521.00;;;;5006840;28;20206;-66
2023/03/31 01:17:08;;;;;;;2.70;2.40;;;;;8.00;96513.00;;;;5006566;28;20679;-66
2023/03/31 01:20:11;;;;;;;3.63;2.60;;;;;7.80;96510.00;;;;5004417;28;20273;-66
2023/03/31 01:23:31;;;;;;;5.60;3.10;;;;;7.40;96519.00;;;;5005027;28;20312;-67
2023/03/31 01:26:47;;;;;;;4.40;3.07;;;;;7.60;96496.00;;;;4998102;28;20222;-67
2023/03/31 01:30:08;;;;;;;3.13;2.57;;;;;7.30;96501.00;;;;5004961;28;20733;-66
2023/03/31 01:33:15;;;;;;;4.80;2.87;;;;;7.60;96501.00;;;;5011880;28;21436;-67
2023/03/31 01:36:24;;;;;;;3.50;2.90;;;;;7.40;96494.00;;;;5002639;28;20206;-67
2023/03/31 01:39:44;;;;;;;2.90;2.60;;;;;7.30;96501.00;;;;5002994;28;20273;-67
2023/03/31 01:42:36;;;;;;;6.07;3.33;;;;;7.30;96491.00;;;;5004487;28;20713;-67
2023/03/31 01:45:33;;;;;;;3.20;2.63;;;;;7.30;96492.00;;;;5009458;28;20250;-67
2023/03/31 01:48:29;;;;;;;4.37;3.20;;;;;7.30;96479.00;;;;5002448;28;20286;-66
2023/03/31 01:51:22;;;;;;;2.70;2.43;;;;;7.10;96495.00;;;;5007801;28;20276;-68
2023/03/31 01:54:17;;;;;;;4.33;2.87;;;;;6.90;96492.00;;;;5003044;28;20246;-68
2023/03/31 01:57:13;;;;;;;4.00;3.23;;;;;6.70;96478.00;;;;5005492;28;20194;-67
2023/03/31 02:00:06;;;;;;;2.67;2.47;;;;;6.80;96472.00;;;;5006764;28;20226;-66
2023/03/31 02:02:59;;;;;;;2.53;2.33;;;;;6.50;96466.00;;;;5006289;28;20205;-68
2023/03/31 02:05:51;;;;;;;2.77;2.53;;;;;6.60;96460.00;;;;4999347;28;20229;-67
2023/03/31 02:08:43;;;;;;;3.90;2.90;;;;;6.60;96450.00;;;;5001444;28;20213;-67
2023/03/31 02:11:34;;;;;;;2.87;2.60;;;;;6.70;96451.00;;;;5004217;28;20234;-67
2023/03/31 02:14:26;;;;;;;4.50;2.83;;;;;6.40;96457.00;;;;5006858;28;20238;-65
2023/03/31 02:17:19;;;;;;;2.50;2.30;;;;;6.20;96449.00;;;;5006249;28;20704;-67
2023/03/31 02:20:11;;;;;;;3.33;3.03;;;;;6.50;96442.00;;;;4999625;28;20231;-67
2023/03/31 02:23:00;;;;;;;4.53;3.20;;;;;6.70;96440.00;;;;5003099;28;20277;-67
2023/03/31 02:25:52;;;;;;;5.13;2.67;;;;;6.60;96425.00;;;;5010119;28;20261;-67
2023/03/31 02:28:41;;;;;;;6.37;2.97;;;;;6.00;96436.00;;;;4997699;28;20217;-68
2023/03/31 02:31:38;;;;;;;3.60;3.30;;;;;5.90;96439.00;;;;4998435;28;20714;-67
2023/03/31 02:34:27;;;;;;;3.67;2.97;;;;;5.70;96442.00;;;;5003943;28;20783;-69
2023/03/31 02:37:16;;;;;;;3.13;2.53;;;;;5.30;96431.00;;;;5011161;28;20350;-64
2023/03/31 02:40:09;;;;;;;2.97;2.50;;;;;5.60;96435.00;;;;5010064;28;20292;-66
2023/03/31 02:42:58;;;;;;;3.30;2.53;;;;;5.60;96444.00;;;;5010247;28;20218;-66
2023/03/31 02:45:48;;;;;;;2.90;2.70;;;;;5.80;96445.00;;;;5004089;28;20268;-66
2023/03/31 02:48:41;;;;;;;2.87;2.60;;;;;6.10;96458.00;;;;5009148;28;20204;-66
2023/03/31 02:52:09;;;;;;;4.37;3.20;;;;;6.30;96452.00;;;;5009093;28;20312;-67
2023/03/31 02:55:09;;;;;;;5.83;2.63;;;;;6.30;96438.00;;;;5005657;28;20283;-67
2023/03/31 02:58:33;;;;;;;3.07;2.80;;;;;6.30;96428.00;;;;5005991;28;20237;-68
2023/03/31 03:01:32;;;;;;;3.90;2.97;;;;;6.20;96427.00;;;;5009722;28;20307;-67
2023/03/31 03:04:36;;;;;;;3.07;2.43;;;;;6.00;96432.00;;;;5017968;28;20259;-67
2023/03/31 03:07:29;;;;;;;10.90;4.03;;;;;6.00;96435.00;;;;5003654;28;20402;-67
2023/03/31 03:10:22;;;;;;;6.27;3.17;;;;;5.70;96430.00;;;;5006785;28;20232;-68
2023/03/31 03:13:19;;;;;;;4.10;2.57;;;;;5.70;96424.00;;;;5004649;28;20229;-68
2023/03/31 03:16:12;;;;;;;2.27;2.00;;;;;6.10;96432.00;;;;5000936;28;20209;-68
2023/03/31 03:19:03;;;;;;;2.83;2.63;;;;;5.90;96425.00;;;;5005235;28;20201;-68
2023/03/31 03:21:53;;;;;;;2.77;2.53;;;;;6.10;96426.00;;;;5001322;28;20206;-69
2023/03/31 03:24:42;;;;;;;2.67;2.20;;;;;6.10;96429.00;;;;5001703;28;20206;-69
2023/03/31 03:27:31;;;;;;;3.40;2.90;;;;;5.50;96424.00;;;;5002570;28;20290;-68
2023/03/31 03:30:20;;;;;;;4.47;3.43;;;;;5.50;96419.00;;;;5006326;28;20665;-66
2023/03/31 03:33:09;;;;;;;3.87;2.13;;;;;5.10;96412.00;;;;5005625;28;20209;-68
2023/03/31 03:35:58;;;;;;;2.03;1.93;;;;;5.20;96411.00;;;;5001896;28;20254;-68
2023/03/31 03:38:49;;;;;;;3.57;2.87;;;;;5.10;96400.00;;;;5002101;28;20206;-68
2023/03/31 03:41:38;;;;;;;2.50;2.30;;;;;5.40;96408.00;;;;5002787;28;20484;-68
2023/03/31 03:44:27;;;;;;;2.73;2.17;;;;;5.20;96404.00;;;;5002485;28;20203;-68
2023/03/31 03:47:16;;;;;;;3.43;2.77;;;;;5.30;96406.00;;;;4998254;28;20571;-68
2023/03/31 03:50:07;;;;;;;4.63;2.30;;;;;5.20;96399.00;;;;5008396;28;20453;-68
2023/03/31 03:52:55;;;;;;;4.43;2.30;;;;;5.30;96392.00;;;;4998739;28;20198;-67
2023/03/31 03:55:47;;;;;;;5.13;2.33;;;;;4.90;96392.00;;;;4993734;28;20642;-65
2023/03/31 03:58:36;;;;;;;2.53;2.33;;;;;5.50;96397.00;;;;5003777;28;20213;-67
2023/03/31 04:01:25;;;;;;;2.83;2.63;;;;;5.70;96390.00;;;;5007098;28;20229;-68
2023/03/31 04:04:14;;;;;;;5.03;2.90;;;;;4.90;96381.00;;;;5005838;28;20224;-70
2023/03/31 04:07:03;;;;;;;3.80;2.73;;;;;4.90;96379.00;;;;4996550;28;20808;-67
2023/03/31 04:09:52;;;;;;;3.00;2.67;;;;;5.00;96388.00;;;;5005419;28;20270;-67
2023/03/31 04:12:42;;;;;;;2.97;2.67;;;;;4.70;96383.00;;;;5001602;28;20531;-67
2023/03/31 04:15:31;;;;;;;5.40;4.90;;;;;4.90;96378.00;;;;5004923;28;20524;-68
2023/03/31 04:18:22;;;;;;;2.43;2.23;;;;;4.50;96375.00;;;;5007816;28;20430;-69
2023/03/31 04:21:14;;;;;;;2.83;2.37;;;;;4.00;96379.00;;;;5018261;28;20439;-71
2023/03/31 04:24:03;;;;;;;3.70;2.70;;;;;4.30;96377.00;;;;5013125;28;20433;-70
2023/03/31 04:26:53;;;;;;;4.77;3.63;;;;;4.40;96365.00;;;;5010245;28;20500;-69
2023/03/31 04:29:53;;;;;;;4.20;2.67;;;;;5.00;96365.00;;;;5013422;28;20499;-68
2023/03/31 04:32:42;;;;;;;8.60;4.67;;;;;4.80;96363.00;;;;5014551;28;20972;-66
2023/03/31 04:35:48;;;;;;;5.07;4.10;;;;;4.50;96340.00;;;;5017035;28;20436;-68
2023/03/31 04:38:37;;;;;;;5.20;4.50;;;;;4.70;96340.00;;;;4997742;28;20781;-67
2023/03/31 04:41:27;;;;;;;3.57;3.17;;;;;4.70;96334.00;;;;5008403;28;20508;-68
2023/03/31 04:44:16;;;;;;;3.43;2.80;;;;;4.30;96339.00;;;;5002715;28;20437;-68
2023/03/31 04:47:06;;;;;;;3.13;2.77;;;;;4.50;96350.00;;;;5006392;28;20468;-68
2023/03/31 04:49:55;;;;;;;2.63;2.43;;;;;4.80;96350.00;;;;5003790;28;20487;-67
2023/03/31 04:52:45;;;;;;;8.07;3.60;;;;;4.90;96339.00;;;;5002384;28;20432;-66
2023/03/31 04:55:34;;;;;;;3.90;3.17;;;;;4.20;96331.00;;;;5005550;28;20464;-73
2023/03/31 04:58:23;;;;;;;3.73;3.33;;;;;4.10;96329.00;;;;5008224;28;20461;-70
2023/03/31 05:01:17;;;;;;;3.90;3.33;;;;;4.20;96334.00;;;;5015357;28;20492;-68
2023/03/31 05:04:07;;;;;;;2.83;2.63;;;;;4.60;96335.00;;;;5000550;28;20546;-70
2023/03/31 05:06:56;;;;;;;4.50;3.80;;;;;5.00;96327.00;;;;5010787;28;20475;-65
2023/03/31 05:09:45;;;;;;;3.13;2.83;;;;;5.10;96336.00;;;;5011735;28;20449;-66
2023/03/31 05:12:35;;;;;;;3.50;2.83;;;;;4.70;96342.00;;;;5020405;28;20803;-68
2023/03/31 05:15:24;;;;;;;3.27;2.97;;;;;4.20;96352.00;;;;5019127;28;20437;-69
2023/03/31 05:18:13;;;;;;;3.20;2.73;;;;;4.30;96343.00;;;;5004726;28;20469;-64
2023/03/31 05:21:11;;;;;;;6.17;3.43;;;;;4.70;96345.00;;;;5009374;28;20511;-67
2023/03/31 05:24:00;;;;;;;3.10;2.80;;;;;5.10;96345.00;;;;5012580;28;20526;-66
2023/03/31 05:26:51;;;;;;;4.77;3.30;;;;;5.00;96341.00;;;;5017309;28;20429;-68
2023/03/31 05:29:40;;;;;;;6.47;2.87;;;;;4.80;96348.00;;;;5003145;28;20437;-66
2023/03/31 05:32:29;;;;;;;5.53;4.00;;;;;5.30;96357.00;;;;5004217;28;20437;-68
2023/03/31 05:35:19;;;;;;;3.70;3.40;;;;;5.50;96336.00;;;;5006195;28;20429;-68
2023/03/31 05:38:09;;;;;;;4.70;3.67;;;;;5.60;96334.00;;;;5003972;28;20493;-67
2023/03/31 05:40:58;;;;;;;3.10;2.80;;;;;5.70;96312.00;;;;5005107;28;20498;-69
2023/03/31 05:43:47;;;;;;;6.57;3.10;;;;;5.90;96315.00;;;;5004957;28;20496;-67
2023/03/31 05:46:36;;;;;;;4.17;3.80;;;;;5.20;96303.00;;;;5004164;28;20452;-65
2023/03/31 05:49:25;;;;;;;6.50;3.30;;;;;5.10;96309.00;;;;5001830;28;20233;-72
2023/03/31 05:52:14;;;;;;;3.30;2.90;;;;;4.90;96306.00;;;;5002233;28;20211;-67
2023/03/31 05:55:05;;;;;;;3.50;3.07;;;;;4.90;96295.00;;;;5002665;28;20242;-65
2023/03/31 05:57:54;;;;;;;3.37;3.07;;;;;5.00;96283.00;;;;4998650;28;20227;-65
2023/03/31 06:00:43;;;;;;;4.43;3.03;;;;;5.10;96280.00;;;;5004565;28;20469;-70
2023/03/31 06:03:32;;;;;;;9.17;3.20;;;;;5.60;96283.00;;;;4999393;28;20582;-67
2023/03/31 06:06:21;;;;;;;4.87;4.30;;;;;5.40;96279.00;;;;5001062;28;20429;-70
2023/03/31 06:09:11;;;;;;;4.10;3.40;;;;;5.20;96260.00;;;;5004900;28;20686;-71
2023/03/31 06:12:02;;;;;;;6.60;3.70;;;;;5.10;96269.00;;;;5008912;28;20983;-65
2023/03/31 06:14:51;;;;;;;6.00;3.37;;;;;5.30;96248.00;;;;4996157;28;20206;-67
2023/03/31 06:17:39;;;;;;;2.90;2.70;;;;;5.50;96253.00;;;;5003654;28;20254;-68
2023/03/31 06:20:28;;;;;;;3.57;2.70;;;;;5.70;96250.00;;;;5009361;28;20453;-67
2023/03/31 06:23:17;;;;;;;2.93;2.73;;;;;5.50;96246.00;;;;5007821;28;20201;-70
2023/03/31 06:26:08;;;;;;;6.00;4.13;;;;;5.70;96248.00;;;;5008571;28;20453;-67
2023/03/31 06:28:58;;;;;;;4.87;4.50;;;;;5.70;96254.00;;;;5002835;28;21693;-69
2023/03/31 06:31:47;;;;;;;10.33;6.67;;;;;5.70;96242.00;;;;5006964;28;20775;-68
2023/03/31 06:34:36;;;;;;;7.90;4.00;;;;;5.80;96238.00;;;;5002211;28;20575;-69
2023/03/31 06:37:25;;;;;;;9.93;3.47;;;;;5.60;96252.00;;;;4995502;28;20446;-70
2023/03/31 06:40:14;;;;;;;2.70;2.50;;;;;5.70;96233.00;;;;5005852;28;20727;-68
2023/03/31 06:43:03;;;;;;;3.07;2.77;;;;;6.00;96220.00;;;;4994228;28;20404;-71
2023/03/31 06:45:55;;;;;;;6.90;2.50;;;;;5.70;96222.00;;;;4998572;28;20218;-71
2023/03/31 06:48:45;;;;;;;3.90;3.50;;;;;6.30;96222.00;;;;5004752;28;20226;-70
2023/03/31 06:51:34;;;;;;;3.17;2.97;;;;;6.30;96213.00;;;;5009079;28;20236;-69
2023/03/31 06:54:23;;;;;;;3.83;2.53;;;;;6.40;96220.00;;;;4993234;28;20258;-71
2023/03/31 06:57:12;;;;;;;5.10;3.27;;;;;7.20;96206.00;;;;5000208;28;20704;-67
2023/03/31 07:00:01;;;;;;;3.87;3.13;;;;;7.40;96221.00;;;;5005551;28;20218;-70
2023/03/31 07:02:52;;;;;;;3.20;2.90;;;;;7.60;96209.00;;;;5007138;28;20678;-69
2023/03/31 07:05:41;;;;;;;9.17;4.10;;;;;8.00;96200.00;;;;5000546;28;20480;-70
2023/03/31 07:08:29;;;;;;;4.50;4.03;;;;;8.30;96183.00;;;;5001862;28;20764;-67
2023/03/31 07:11:18;;;;;;;8.60;6.50;;;;;9.00;96185.00;;;;5004339;28;20288;-67
2023/03/31 07:14:08;;;;;;;10.07;7.63;;;;;9.40;96167.00;;;;5000247;28;20214;-68
2023/03/31 07:16:57;;;;;;;11.33;7.67;;;;;9.60;96166.00;;;;4993069;28;20209;-68
2023/03/31 07:19:48;;;;;;;16.80;9.47;;;;;10.00;96170.00;;;;5004771;28;20245;-69
2023/03/31 07:22:37;;;;;;;11.13;7.70;;;;;10.10;96165.00;;;;5006698;28;20267;-68
2023/03/31 07:25:26;;;;;;;9.87;7.33;;;;;9.80;96167.00;;;;5002587;28;20333;-70
2023/03/31 07:28:15;;;;;;;11.07;7.60;;;;;9.80;96164.00;;;;5005846;28;20296;-69
2023/03/31 07:31:10;;;;;;;9.60;7.97;;;;;10.30;96173.00;;;;5004903;28;20238;-67
2023/03/31 07:33:59;;;;;;;7.87;6.27;;;;;10.80;96159.00;;;;5006156;28;20288;-67
2023/03/31 07:36:50;;;;;;;10.57;7.13;;;;;11.10;96155.00;;;;5000743;28;20206;-67
2023/03/31 07:39:39;;;;;;;11.47;7.10;;;;;11.50;96162.00;;;;5007029;28;20202;-68
2023/03/31 07:42:28;;;;;;;10.10;7.30;;;;;11.30;96153.00;;;;5009277;28;20206;-69
2023/03/31 07:45:17;;;;;;;7.93;7.20;;;;;11.40;96137.00;;;;4983875;28;20225;-70
2023/03/31 07:48:06;;;;;;;7.93;6.40;;;;;12.10;96142.00;;;;5004545;28;20217;-70
2023/03/31 07:50:55;;;;;;;9.90;6.90;;;;;11.60;96158.00;;;;5000133;28;20257;-70
2023/03/31 07:53:45;;;;;;;9.00;7.03;;;;;11.70;96149.00;;;;5003719;28;20238;-71
2023/03/31 07:56:34;;;;;;;9.57;7.50;;;;;11.90;96156.00;;;;5006329;28;20655;-71
2023/03/31 07:59:23;;;;;;;7.57;6.07;;;;;11.80;96151.00;;;;5006006;28;20256;-70
2023/03/31 08:02:13;;;;;;;7.60;5.90;;;;;11.60;96135.00;;;;5000094;28;20249;-67
2023/03/31 08:05:03;;;;;;;6.37;5.63;;;;;11.50;96137.00;;;;5011564;28;20206;-69
2023/03/31 08:07:52;;;;;;;14.67;6.77;;;;;11.60;96125.00;;;;5003673;28;20692;-68
2023/03/31 08:10:42;;;;;;;9.27;6.60;;;;;12.00;96138.00;;;;5011725;28;20252;-69
2023/03/31 08:13:31;;;;;;;8.23;6.53;;;;;11.90;96123.00;;;;4998413;28;20210;-69
2023/03/31 08:16:20;;;;;;;12.87;6.60;;;;;12.40;96113.00;;;;5001976;28;20222;-68
2023/03/31 08:19:09;;;;;;;9.07;6.10;;;;;12.60;96117.00;;;;4998168;28;20202;-68
2023/03/31 08:21:58;;;;;;;8.90;6.57;;;;;12.80;96120.00;;;;5001044;28;20592;-68
2023/03/31 08:24:47;;;;;;;6.10;5.53;;;;;12.80;96117.00;;;;4998845;28;20297;-68
2023/03/31 08:27:39;;;;;;;7.53;4.73;;;;;13.00;96113.00;;;;5003050;28;20211;-68
2023/03/31 08:30:28;;;;;;;11.90;6.07;;;;;13.00;96108.00;;;;5005184;28;20276;-68
2023/03/31 08:33:17;;;;;;;10.37;6.20;;;;;13.30;96106.00;;;;4998923;28;20249;-68
2023/03/31 08:36:09;;;;;;;6.65;4.80;;;;;13.00;96111.00;;;;4997846;28;20202;-67
2023/03/31 08:38:58;;;;;;;6.57;5.20;;;;;13.10;96083.00;;;;5003928;28;20581;-72
2023/03/31 08:41:53;;;;;;;7.53;5.00;;;;;13.80;96090.00;;;;5004862;28;20226;-72
2023/03/31 08:44:45;;;;;;;7.37;5.43;;;;;14.30;96086.00;;;;5006942;28;20586;-71
2023/03/31 08:47:36;;;;;;;8.20;6.30;;;;;14.10;96085.00;;;;5002882;28;20242;-72
2023/03/31 08:50:27;;;;;;;10.37;6.13;;;;;14.40;96077.00;;;;5008152;28;20304;-71
2023/03/31 08:53:22;;;;;;;7.70;6.43;;;;;14.60;96063.00;;;;5003650;28;20226;-71
2023/03/31 08:56:16;;;;;;;9.53;7.53;;;;;14.80;96050.00;;;;4998901;28;20244;-71
2023/03/31 08:59:06;;;;;;;6.17;5.50;;;;;14.90;96046.00;;;;4992551;28;20261;-71
2023/03/31 09:02:01;;;;;;;7.20;4.90;;;;;15.00;96035.00;;;;4990562;28;20213;-71
2023/03/31 09:05:10;;;;;;;6.97;4.63;;;;;15.00;96019.00;;;;4997372;28;20221;-71
2023/03/31 09:08:06;;;;;;;8.80;6.07;;;;;15.40;96014.00;;;;5020686;28;20704;-71
2023/03/31 09:10:58;;;;;;;7.40;5.50;;;;;15.70;95999.00;;;;4996166;28;20761;-71
2023/03/31 09:14:08;;;;;;;8.27;4.70;;;;;15.90;96011.00;;;;5004017;28;20213;-71
2023/03/31 09:17:10;;;;;;;10.53;6.30;;;;;16.40;96002.00;;;;5000809;28;20627;-71
2023/03/31 09:20:08;;;;;;;9.67;4.50;;;14.10;99.90;16.50;96007.00;;;;5008009;28;20720;-71
2023/03/31 09:23:05;;;;;;;6.60;4.37;;;14.10;99.90;16.30;95997.00;;;;5008531;28;20194;-67
2023/03/31 09:25:56;;;;;;;5.80;3.90;;;14.30;99.90;16.40;96004.00;;;;5006953;28;20249;-68
2023/03/31 09:28:45;;;;;;;4.03;3.63;;;14.30;99.90;16.30;96011.00;;;;5006557;28;20705;-70
2023/03/31 09:31:35;;;;;;;6.87;4.27;;;14.40;99.90;16.40;95986.00;;;;4997524;28;20305;-70
2023/03/31 09:34:31;;;;;;;6.47;3.80;;;14.40;99.90;16.70;95994.00;;;;5006117;28;20205;-69
2023/03/31 09:37:26;;;;;;;9.97;3.87;;;14.50;99.90;16.90;95970.00;;;;5006397;28;20673;-69
2023/03/31 09:40:25;;;;;;;6.00;3.73;;;14.60;99.90;17.60;95965.00;;;;5005995;28;20877;-69
2023/03/31 09:43:24;;;;;;;4.70;3.20;;;14.90;99.90;17.50;95956.00;;;;5009622;28;20207;-69
2023/03/31 09:46:24;;;;;;;4.90;3.37;;;15.10;99.90;17.40;95952.00;;;;5007750;28;20202;-69
2023/03/31 09:49:26;;;;;;;6.47;3.30;;;15.20;99.90;17.30;95958.00;;;;5005719;28;20198;-69
2023/03/31 09:52:29;;;;;;;4.90;3.13;;;15.20;99.90;17.20;95946.00;;;;5008744;28;20197;-69
2023/03/31 09:55:27;;;;;;;5.97;2.90;;;15.20;99.90;17.40;95926.00;;;;5008216;28;20213;-69
2023/03/31 09:58:25;;;;;;;4.57;3.00;;;15.20;99.90;17.50;95935.00;;;;5014315;28;20587;-69
2023/03/31 10:01:18;;;;;;;4.77;3.27;;;15.20;99.90;17.00;95950.00;;;;5010262;28;20238;-69
2023/03/31 10:04:09;;;;;;;5.17;3.10;;;15.20;99.90;16.80;95951.00;;;;5004403;28;20206;-70
2023/03/31 10:07:06;;;;;;;4.70;3.10;;;15.10;99.90;16.60;95962.00;;;;5001198;28;20615;-70
2023/03/31 10:09:56;;;;;;;3.63;3.33;;;15.00;99.90;16.30;95960.00;;;;5003497;28;20241;-69
2023/03/31 10:12:51;;;;;;;4.00;3.40;;;14.80;99.90;16.10;95946.00;;;;5005760;28;20232;-69
2023/03/31 10:15:40;;;;;;;7.00;3.70;;;14.60;99.90;16.00;95936.00;;;;5007773;28;20266;-70
2023/03/31 10:18:35;;;;;;;8.27;3.50;;;14.40;99.90;16.00;95920.00;;;;5002858;28;20215;-69
2023/03/31 10:21:26;;;;;;;4.67;2.97;;;14.30;99.90;16.00;95916.00;;;;4999595;28;20225;-69
2023/03/31 10:24:20;;;;;;;4.40;3.50;;;14.20;99.90;15.70;95904.00;;;;5000750;28;20583;-69
2023/03/31 10:27:21;;;;;;;5.37;3.23;;;14.10;99.90;15.60;95895.00;;;;5002535;28;20206;-69
2023/03/31 10:30:12;;;;;;;3.20;2.77;;;14.00;99.90;15.20;95890.00;;;;5001047;28;20228;-69
2023/03/31 10:33:06;;;;;;;4.13;2.87;;;13.80;99.90;15.40;95892.00;;;;5007576;28;20249;-69
2023/03/31 10:36:02;;;;;;;5.03;2.87;;;13.70;99.90;15.40;95882.00;;;;5008342;28;20330;-69
2023/03/31 10:38:52;;;;;;;8.27;3.10;;;13.60;99.90;15.50;95883.00;;;;4998597;28;20198;-69
2023/03/31 10:41:42;;;;;;;4.77;3.37;;;13.60;99.90;15.40;95878.00;;;;4997309;28;20724;-69
2023/03/31 10:44:35;;;;;;;6.63;3.10;;;13.60;99.90;15.40;95860.00;;;;4997565;28;20688;-68
2023/03/31 10:47:24;;;;;;;6.00;3.50;;;13.60;99.90;15.50;95865.00;;;;5000413;28;20202;-69
2023/03/31 10:50:15;;;;;;;5.07;3.70;;;13.60;99.90;15.50;95865.00;;;;5010264;28;20237;-69
2023/03/31 10:53:06;;;;;;;4.97;3.57;;;13.60;99.90;15.60;95858.00;;;;5006105;28;20228;-69
2023/03/31 10:56:18;;;;;;;4.20;3.50;;;13.60;99.90;16.10;95856.00;;;;5002915;28;20261;-69
2023/03/31 10:59:28;;;;;;;3.43;2.43;;;13.80;99.90;16.40;95857.00;;;;5002790;28;20304;-69
2023/03/31 11:03:07;;;;;;;2.83;2.40;;;14.00;99.90;16.60;95845.00;;;;5005626;28;20206;-68
2023/03/31 11:06:06;;;;;;;1.73;1.60;;;14.10;99.90;17.30;95818.00;;;;4995577;28;20205;-68
2023/03/31 11:09:13;;;;;;;2.10;1.90;;;14.50;99.90;18.20;95810.00;;;;5004242;28;20899;-68
2023/03/31 11:12:12;;;;;;;2.83;2.20;;;15.00;99.90;18.50;95810.00;;;;4993540;28;20855;-68
2023/03/31 11:15:19;;;;;;;4.17;2.37;;;15.50;99.90;18.40;95785.00;;;;4992887;28;20748;-70
2023/03/31 11:18:36;;;;;;;3.33;1.60;;;15.90;99.90;18.40;95776.00;;;;5006580;28;20773;-68
2023/03/31 11:21:33;;;;;;;3.17;1.90;;;16.20;99.90;18.40;95784.00;;;;5019038;28;20233;-73
2023/03/31 11:24:38;;;;;;;1.30;1.10;;;16.30;99.90;17.40;95790.00;;;;5005066;28;20217;-73
2023/03/31 11:27:40;;;;;;;1.00;0.90;;;16.30;99.90;18.10;95795.00;;;;5000664;28;20234;-71
2023/03/31 11:30:36;;;;;;;2.13;1.30;;;16.30;99.50;17.70;95762.00;;;;5002013;28;21072;-72
2023/03/31 11:33:54;;;;;;;2.07;0.93;;;16.20;98.00;18.70;95771.00;;;;5003368;28;20226;-68
2023/03/31 11:37:12;;;;;;;3.07;1.60;;;16.30;98.10;18.20;95770.00;;;;5008178;28;20236;-70
2023/03/31 11:40:19;;;;;;;2.57;1.13;;;16.50;97.30;19.00;95749.00;;;;5020551;28;20647;-68
2023/03/31 11:43:20;;;;;;;7.07;3.90;;;16.80;97.20;20.60;95761.00;;;;4999756;28;20262;-69
2023/03/31 11:46:15;;;;;;;2.73;1.67;;;17.30;98.30;20.80;95747.00;;;;5002718;28;20202;-69
2023/03/31 11:49:09;;;;;;;3.70;1.50;;;17.70;97.90;21.30;95734.00;;;;4996108;28;20198;-68
2023/03/31 11:52:04;;;;;;;3.23;1.47;;;18.50;96.40;21.90;95758.00;;;;5002526;28;20229;-67
2023/03/31 11:54:57;;;;;;;2.30;1.40;;;19.20;96.20;22.90;95752.00;;;;4998830;28;20232;-67
2023/03/31 11:57:54;;;;;;;1.70;1.30;;;19.30;96.50;22.20;95759.00;;;;5008027;28;20201;-67
2023/03/31 12:00:47;;;;;;;1.23;1.10;;;19.60;94.10;22.80;95706.00;;;;5014676;28;20290;-67
2023/03/31 12:03:44;;;;;;;2.10;1.30;;;19.90;93.50;23.40;95689.00;;;;5007477;28;20680;-67
2023/03/31 12:06:38;;;;;;;2.10;1.20;;;;;24.20;95684.00;;;;5008174;28;20202;-67
2023/03/31 12:09:30;;;;;;;1.53;1.13;;;;;23.40;95698.00;;;;5010764;28;20355;-69
2023/03/31 12:12:22;;;;;;;2.87;1.17;;;;;20.80;95694.00;;;;5010789;28;20284;-73
2023/03/31 12:15:17;;;;;;;1.43;1.33;;;;;20.50;95722.00;;;;4998209;28;20229;-76
2023/03/31 12:18:12;;;;;;;2.37;0.83;;;;;18.70;95721.00;;;;5006751;28;20209;-76
2023/03/31 12:21:05;;;;;;;2.47;1.20;;;;;19.30;95702.00;;;;5004657;28;20237;-63
2023/03/31 12:23:54;;;;;;;2.10;1.27;;;;;18.20;95715.00;;;;5001994;28;20798;-72
2023/03/31 12:26:50;;;;;;;1.33;1.10;;;;;18.50;95710.00;;;;5006949;28;20685;-72
2023/03/31 12:29:41;;;;;;;2.20;1.10;;;;;17.40;95687.00;;;;5015996;28;20206;-71
2023/03/31 12:32:33;;;;;;;3.33;1.50;;;;;17.40;95686.00;;;;5015583;28;20202;-71
2023/03/31 12:35:24;;;;;;;1.20;1.10;;;;;17.90;95687.00;;;;5000070;28;20219;-63
2023/03/31 12:38:37;;;;;;;2.67;1.40;;;;;17.50;95677.00;;;;5001967;28;20237;-74
2023/03/31 12:41:32;;;;;;;2.07;1.50;;;;;17.40;95670.00;;;;5007968;28;20317;-67
2023/03/31 12:44:31;;;;;;;2.83;1.40;;;;;17.40;95663.00;;;;5003178;28;20199;-69
2023/03/31 12:47:40;;;;;;;1.50;1.20;;;;;18.20;95639.00;;;;5004827;28;20255;-73
2023/03/31 12:50:44;;;;;;;1.17;1.00;;;;;18.80;95631.00;;;;5009787;28;20271;-69
2023/03/31 12:53:41;;;;;;;3.10;1.27;;;;;18.20;95643.00;;;;5011545;28;20622;-72
2023/03/31 12:57:03;;;;;;;3.17;1.80;;;;;18.00;95641.00;;;;5011011;28;20316;-63
2023/03/31 13:00:21;;;;;;;2.67;1.20;;;;;17.70;95588.00;;;;5011175;28;20229;-64
2023/03/31 13:03:40;;;;;;;1.33;0.83;;;;;19.00;95575.00;;;;5010570;28;20209;-76
2023/03/31 13:07:03;;;;;;;1.73;1.30;;;;;18.60;95623.00;;;;5007530;28;21144;-68
2023/03/31 13:09:59;;;;;;;2.57;1.80;;;;;18.50;95628.00;;;;5008656;28;20233;-65
2023/03/31 13:13:01;;;;;;;1.37;1.00;;;;;17.30;95630.00;;;;5018793;28;20319;-64
2023/03/31 13:15:51;;;;;;;4.40;1.30;;;;;17.60;95622.00;;;;5009685;28;20210;-65
2023/03/31 13:18:42;;;;;;;1.87;1.17;;;;;17.50;95617.00;;;;5002190;28;20210;-63
2023/03/31 13:21:31;;;;;;;2.40;1.13;;;;;16.90;95616.00;;;;5017285;28;20233;-62
2023/03/31 13:24:23;;;;;;;1.40;0.90;;;;;17.30;95615.00;;;;5008069;28;20206;-65
2023/03/31 13:27:30;;;;;;;1.00;1.00;;;;;17.10;95604.00;;;;5000403;28;20277;-75
2023/03/31 13:30:44;;;;;;;1.93;1.00;;;;;16.50;95592.00;;;;5003023;28;20226;-66
2023/03/31 13:33:37;;;;;;;2.47;1.27;;;;;17.00;95594.00;;;;5006103;28;20237;-66
2023/03/31 13:36:48;;;;;;;1.57;0.90;;;;;16.90;95590.00;;;;5002133;28;20277;-64
2023/03/31 13:39:59;;;;;;;1.73;1.00;;;;;16.70;95582.00;;;;5002230;28;20217;-63
2023/03/31 13:43:31;;;;;;;1.00;0.87;;;;;16.90;95578.00;;;;5006047;28;20267;-66
2023/03/31 13:46:53;;;;;;;2.00;1.40;;;;;17.00;95570.00;;;;4948950;28;20291;-70
2023/03/31 13:49:55;;;;;;;1.67;1.30;;;;;17.60;95576.00;;;;5012310;28;20213;-66
2023/03/31 13:52:52;;;;;;;4.77;2.77;;;;;17.60;95575.00;;;;5009455;28;20618;-67
2023/03/31 13:56:08;;;;;;;0.93;0.93;;;;;17.40;95562.00;;;;5013961;28;20788;-66
2023/03/31 13:59:34;;;;;;;2.03;1.10;;;;;17.30;95554.00;;;;4996398;28;20205;-66
2023/03/31 14:02:52;;;;;;;1.47;1.37;;;;;17.50;95542.00;;;;5002645;28;20297;-67
2023/03/31 14:05:43;;;;;;;4.70;1.70;;;;;17.50;95533.00;;;;5006052;28;20218;-67
2023/03/31 14:08:41;;;;;;;1.37;0.93;;;;;17.50;95535.00;;;;5010528;28;20230;-65
2023/03/31 14:11:32;;;;;;;1.97;1.27;;;;;17.30;95536.00;;;;5015649;28;20233;-66
2023/03/31 14:14:22;;;;;;;6.50;1.30;;;;;17.60;95536.00;;;;5012598;28;20229;-66
2023/03/31 14:17:12;;;;;;;2.17;1.20;;;;;17.50;95522.00;;;;5018788;28;20212;-66